T'ai-chung, Taiwan
Current Conditions -  °F | °C
As of 5:30 PM on Friday 24 Oct 2014 (Local Time) from RCMQ Reporting Station
Scattered Clouds Scattered Clouds  
Wind Chill: 72°   Ceiling: Unl
Heat Index: 72°   Visibility: 6mi
Dew Point: 66°   Wind: 9mph
Humidity: 83%   Direction: 350°N
Pressure: 29.97"   Gusts: NA
Location:  24.15°N, 120.68°E
Report Text: RCMQ 240930Z 35008KT 9999 FEW012 SCT160 22/19 Q1015 NOSIG RMK A2998
Loading
Personal Weather Stations






























Interactive Weather Map
Tropical Storm Tracking
New forecast layout! Learn more

10-Day Weather Forecast

Advertisements
Track Severe Weather on mobile